Time;durP1;ratioP1;P1;durP2;ratioP2;P2;SDS_P1;SDS_P2;PMS_P1;PMS_P2;Temp;Humidity;BMP_temperature;BMP_pressure;BME280_temperature;BME280_humidity;BME280_pressure;Samples;Min_cycle;Max_cycle;Signal;HPM_P1;HPM_P2
2022/09/17 00:00:00;;;;;;;3.92;1.33;;;;;;;9.64;100.00;101039.84;1249410;23;20252;-76
2022/09/17 00:00:40;;;;;;;7.68;0.98;;;;;;;9.63;100.00;101035.56;1247300;23;20276;-77
2022/09/17 00:01:18;;;;;;;3.92;1.02;;;;;;;9.64;100.00;101034.53;1245704;23;20300;-77
2022/09/17 00:01:51;;;;;;;5.93;1.30;;;;;;;9.72;100.00;101031.66;1241531;23;20732;-77
2022/09/17 00:02:24;;;;;;;13.35;1.88;;;;;;;9.69;100.00;101037.38;1237386;24;20301;-77
2022/09/17 00:02:55;;;;;;;5.93;1.10;;;;;;;9.68;100.00;101035.75;1234915;24;20276;-77
2022/09/17 00:03:28;;;;;;;7.80;1.58;;;;;;;9.70;100.00;101039.03;1230856;24;20266;-76
2022/09/17 00:04:02;;;;;;;10.05;1.50;;;;;;;9.75;100.00;101036.56;1238524;23;20345;-77
2022/09/17 00:04:35;;;;;;;4.97;0.90;;;;;;;9.73;100.00;101033.28;1243005;23;20644;-77
2022/09/17 00:05:06;;;;;;;13.00;1.20;;;;;;;9.77;100.00;101029.19;1249617;23;20328;-77
2022/09/17 00:05:38;;;;;;;3.75;0.93;;;;;;;9.73;100.00;101028.78;1249332;23;20256;-77
2022/09/17 00:06:11;;;;;;;6.47;1.38;;;;;;;9.74;100.00;101025.09;1244251;23;20252;-77
2022/09/17 00:06:42;;;;;;;6.05;1.25;;;;;;;9.79;100.00;101029.78;1255464;23;20731;-77
2022/09/17 00:07:14;;;;;;;10.60;1.48;;;;;;;9.83;100.00;101039.81;1255350;23;20251;-77
2022/09/17 00:07:46;;;;;;;8.35;1.00;;;;;;;9.79;100.00;101032.47;1249050;23;20311;-77
2022/09/17 00:08:17;;;;;;;6.75;1.88;;;;;;;9.86;100.00;101035.91;1247629;23;20267;-77
2022/09/17 00:08:49;;;;;;;5.43;1.15;;;;;;;9.84;100.00;101030.81;1248676;23;20271;-77
2022/09/17 00:09:21;;;;;;;3.85;0.95;;;;;;;9.77;100.00;101035.31;1249894;23;20252;-77
2022/09/17 00:09:53;;;;;;;7.85;1.50;;;;;;;9.85;100.00;101029.78;1249644;23;20278;-77
2022/09/17 00:10:24;;;;;;;9.40;1.30;;;;;;;9.91;100.00;101033.47;1249193;23;20349;-77
2022/09/17 00:10:56;;;;;;;9.63;1.08;;;;;;;9.88;100.00;101037.38;1249365;23;20262;-77
2022/09/17 00:11:30;;;;;;;8.77;1.45;;;;;;;9.88;100.00;101037.38;1250598;23;20455;-77
2022/09/17 00:12:02;;;;;;;10.10;1.25;;;;;;;9.89;100.00;101043.53;1255320;23;20254;-77
2022/09/17 00:12:34;;;;;;;10.23;1.50;;;;;;;9.88;100.00;101041.88;1243564;23;20256;-77
2022/09/17 00:13:06;;;;;;;5.30;1.70;;;;;;;9.89;100.00;101039.00;1243189;23;20266;-77
2022/09/17 00:13:38;;;;;;;5.43;1.38;;;;;;;9.96;100.00;101046.16;1243452;23;20729;-76
2022/09/17 00:14:15;;;;;;;7.55;1.48;;;;;;;9.91;100.00;101052.09;1251482;23;20593;-77
2022/09/17 00:14:46;;;;;;;4.20;1.73;;;;;;;9.91;100.00;101052.94;1261138;23;20254;-77
2022/09/17 00:15:18;;;;;;;6.05;1.27;;;;;;;9.93;100.00;101050.06;1261447;23;20258;-75
2022/09/17 00:15:51;;;;;;;9.60;2.25;;;;;;;9.88;100.00;101058.66;1259390;23;20255;-77
2022/09/17 00:16:32;;;;;;;9.05;1.92;;;;;;;9.87;100.00;101051.72;1249464;23;20621;-77
2022/09/17 00:17:04;;;;;;;4.95;1.38;;;;;;;9.92;100.00;101048.41;1249084;23;20250;-77
2022/09/17 00:17:35;;;;;;;5.80;2.13;;;;;;;9.93;100.00;101052.72;1249279;23;20144;-77
2022/09/17 00:18:07;;;;;;;10.45;2.00;;;;;;;9.90;100.00;101056.63;1244426;23;20268;-77
2022/09/17 00:18:40;;;;;;;9.95;1.77;;;;;;;9.87;100.00;101053.53;1243338;23;20335;-77
2022/09/17 00:19:15;;;;;;;6.95;1.98;;;;;;;9.88;100.00;101052.53;1243301;23;20275;-77
2022/09/17 00:19:48;;;;;;;8.40;1.13;;;;;;;9.88;100.00;101052.53;1244305;23;20729;-77
2022/09/17 00:20:20;;;;;;;7.22;1.23;;;;;;;9.84;100.00;101059.25;1249328;23;20251;-77
2022/09/17 00:20:53;;;;;;;8.20;2.22;;;;;;;9.91;100.00;101057.44;1255572;23;20251;-77
2022/09/17 00:21:25;;;;;;;11.45;1.80;;;;;;;9.88;100.00;101048.03;1254899;23;20251;-77
2022/09/17 00:21:57;;;;;;;7.63;2.63;;;;;;;9.91;100.00;101052.09;1244994;23;20272;-77
2022/09/17 00:22:28;;;;;;;7.20;1.30;;;;;;;9.94;100.00;101062.34;1242469;23;20267;-77
2022/09/17 00:23:00;;;;;;;16.05;2.60;;;;;;;9.91;100.00;101054.78;1235483;24;20449;-77
2022/09/17 00:23:32;;;;;;;4.03;1.02;;;;;;;9.97;100.00;101055.78;1239008;23;20277;-77
2022/09/17 00:24:04;;;;;;;7.50;1.58;;;;;;;9.97;100.00;101051.28;1243321;23;20256;-77
2022/09/17 00:24:36;;;;;;;7.82;1.17;;;;;;;10.02;100.00;101053.31;1236301;23;20269;-77
2022/09/17 00:25:07;;;;;;;7.07;1.20;;;;;;;10.00;100.00;101055.38;1237749;24;20269;-77
2022/09/17 00:25:44;;;;;;;5.60;1.35;;;;;;;9.95;100.00;101058.66;1238679;23;20323;-77
2022/09/17 00:26:15;;;;;;;3.25;1.00;;;;;;;9.98;100.00;101050.25;1239381;23;20328;-77
2022/09/17 00:26:48;;;;;;;2.88;1.15;;;;;;;9.91;100.00;101046.78;1245148;23;20264;-77
2022/09/17 00:27:19;;;;;;;5.35;1.75;;;;;;;9.95;100.00;101045.34;1243423;23;20263;-76
2022/09/17 00:27:52;;;;;;;5.10;2.40;;;;;;;9.99;100.00;101049.22;1236822;23;20404;-77
2022/09/17 00:28:23;;;;;;;5.45;1.20;;;;;;;10.04;100.00;101046.75;1243336;23;20264;-77
2022/09/17 00:28:56;;;;;;;8.45;2.42;;;;;;;10.02;100.00;101043.47;1238376;23;20301;-77
2022/09/17 00:29:28;;;;;;;4.20;1.50;;;;;;;10.00;100.00;101050.03;1238364;23;20268;-77
2022/09/17 00:29:59;;;;;;;5.97;1.70;;;;;;;9.98;100.00;101052.09;1237797;24;20647;-77
2022/09/17 00:30:31;;;;;;;6.75;1.42;;;;;;;10.00;100.00;101050.03;1238628;23;20253;-77
2022/09/17 00:31:07;;;;;;;4.07;1.00;;;;;;;10.01;100.00;101051.69;1244158;23;20814;-77
2022/09/17 00:31:39;;;;;;;5.30;1.08;;;;;;;9.99;100.00;101049.22;1251307;23;20334;-78
2022/09/17 00:32:11;;;;;;;3.67;1.20;;;;;;;9.98;100.00;101055.56;1253008;23;20401;-77
2022/09/17 00:32:43;;;;;;;7.05;1.27;;;;;;;9.96;100.00;101046.16;1255326;23;20260;-77
2022/09/17 00:33:16;;;;;;;5.35;1.40;;;;;;;9.96;100.00;101043.50;1249432;23;20255;-77
2022/09/17 00:33:48;;;;;;;6.03;1.50;;;;;;;10.03;100.00;101052.28;1243697;23;20391;-77
2022/09/17 00:34:19;;;;;;;4.55;1.05;;;;;;;10.04;100.00;101046.75;1243459;23;20747;-77
2022/09/17 00:34:51;;;;;;;6.80;1.35;;;;;;;10.00;100.00;101048.19;1244636;23;20263;-77
2022/09/17 00:35:24;;;;;;;8.85;1.77;;;;;;;9.97;100.00;101047.78;1250334;23;20263;-77
2022/09/17 00:36:00;;;;;;;7.88;1.10;;;;;;;9.98;100.00;101058.22;1255134;23;20258;-77
2022/09/17 00:36:34;;;;;;;5.60;1.20;;;;;;;9.95;100.00;101048.00;1255337;23;20251;-77
2022/09/17 00:37:06;;;;;;;8.75;1.30;;;;;;;9.98;100.00;101047.59;1248621;23;20316;-77
2022/09/17 00:37:37;;;;;;;5.45;1.35;;;;;;;9.93;100.00;101050.06;1249296;23;20312;-77
2022/09/17 00:38:10;;;;;;;12.57;0.98;;;;;;;9.94;100.00;101054.34;1249107;23;20255;-77
2022/09/17 00:38:42;;;;;;;7.28;1.75;;;;;;;9.94;100.00;101050.88;1244358;23;20646;-77
2022/09/17 00:39:15;;;;;;;11.27;1.65;;;;;;;9.88;100.00;101055.19;1243669;23;20261;-77
2022/09/17 00:39:46;;;;;;;5.90;0.90;;;;;;;9.88;100.00;101060.50;1243523;23;20263;-77
2022/09/17 00:40:19;;;;;;;10.35;1.30;;;;;;;9.89;100.00;101054.97;1242126;23;20309;-77
2022/09/17 00:40:51;;;;;;;9.73;2.05;;;;;;;9.88;100.00;101055.19;1245094;23;20263;-77
2022/09/17 00:41:25;;;;;;;9.90;1.70;;;;;;;9.88;100.00;101057.84;1241144;23;20279;-77
2022/09/17 00:41:56;;;;;;;12.88;2.28;;;;;;;9.91;100.00;101057.44;1237427;24;20272;-77
2022/09/17 00:42:28;;;;;;;6.70;1.00;;;;;;;9.94;100.00;101050.88;1238927;23;20309;-77
2022/09/17 00:42:59;;;;;;;10.80;1.85;;;;;;;9.97;100.00;101045.94;1244464;23;20613;-77
2022/09/17 00:43:33;;;;;;;10.43;1.10;;;;;;;9.94;100.00;101056.19;1244151;23;20264;-76
2022/09/17 00:44:39;;;;;;;10.63;1.55;;;;;;;10.00;100.00;101050.84;1249124;23;20259;-76
2022/09/17 00:45:11;;;;;;;11.75;1.90;;;;;;;9.93;100.00;101059.88;1245192;23;20308;-76
2022/09/17 00:45:42;;;;;;;10.32;1.50;;;;;;;9.96;100.00;101057.63;1249296;23;20256;-76
2022/09/17 00:46:33;;;;;;;6.22;1.33;;;;;;;10.10;100.00;101058.41;1243570;23;20252;-76
2022/09/17 00:47:28;;;;;;;8.95;1.60;;;;;;;10.03;100.00;101058.41;1243397;23;20260;-76
2022/09/17 00:48:02;;;;;;;9.77;1.50;;;;;;;9.99;100.00;101059.88;1252235;23;20026;-76
2022/09/17 00:48:34;;;;;;;8.63;1.63;;;;;;;10.00;100.00;101061.50;1249181;23;20304;-76
2022/09/17 00:49:18;;;;;;;14.95;1.45;;;;;;;9.98;100.00;101058.22;1249306;23;20264;-76
2022/09/17 00:49:53;;;;;;;12.48;1.90;;;;;;;9.97;100.00;101067.25;1243134;23;20267;-76
2022/09/17 00:50:29;;;;;;;7.68;1.52;;;;;;;9.96;100.00;101059.47;1247220;23;20319;-76
2022/09/17 00:51:01;;;;;;;9.05;1.67;;;;;;;9.95;100.00;101058.66;1243363;23;20263;-76
2022/09/17 00:51:35;;;;;;;8.18;1.42;;;;;;;9.95;100.00;101061.31;1245984;23;20343;-77
2022/09/17 00:52:11;;;;;;;7.13;1.65;;;;;;;9.85;100.00;101053.72;1249384;23;20686;-76
2022/09/17 00:52:47;;;;;;;11.23;2.30;;;;;;;9.88;100.00;101063.97;1245691;23;20263;-76
2022/09/17 00:53:20;;;;;;;6.85;1.90;;;;;;;9.96;100.00;101059.47;1249212;23;20723;-76
2022/09/17 00:53:51;;;;;;;29.33;3.88;;;;;;;9.88;100.00;101063.97;1243172;23;20263;-76
2022/09/17 00:54:23;;;;;;;11.45;1.77;;;;;;;9.93;100.00;101066.03;1239459;23;20265;-76
2022/09/17 00:55:12;;;;;;;6.22;1.80;;;;;;;9.95;100.00;101063.16;1243453;23;20259;-76
2022/09/17 00:55:58;;;;;;;15.25;1.48;;;;;;;9.98;100.00;101058.22;1237707;24;20253;-76
2022/09/17 00:56:32;;;;;;;8.00;1.45;;;;;;;9.95;100.00;101065.81;1238073;23;20276;-77
2022/09/17 00:57:03;;;;;;;7.63;2.10;;;;;;;9.91;100.00;101066.22;1249514;23;20251;-76
2022/09/17 00:57:35;;;;;;;19.08;2.20;;;;;;;9.93;100.00;101074.00;1248497;23;20738;-76
2022/09/17 00:58:09;;;;;;;6.63;1.75;;;;;;;9.89;100.00;101064.81;1244720;23;20255;-76
2022/09/17 00:58:40;;;;;;;8.45;1.63;;;;;;;10.01;100.00;101073.78;1235799;23;20306;-77
2022/09/17 00:59:13;;;;;;;7.93;1.17;;;;;;;9.86;100.00;101070.50;1237271;24;20686;-76
2022/09/17 00:59:45;;;;;;;11.77;1.77;;;;;;;9.84;100.00;101067.22;1239017;23;20493;-76
2022/09/17 01:00:18;;;;;;;15.70;4.55;;;;;;;9.89;100.00;101075.44;1245323;23;20257;-76
2022/09/17 01:00:49;;;;;;;5.07;1.30;;;;;;;9.76;100.00;101076.25;1249187;23;20263;-77
2022/09/17 01:01:21;;;;;;;4.80;1.73;;;;;;;9.72;100.00;101074.22;1243369;23;20264;-76
2022/09/17 01:01:53;;;;;;;10.45;1.42;;;;;;;9.71;100.00;101067.25;1243078;23;20256;-76
2022/09/17 01:02:24;;;;;;;11.45;3.28;;;;;;;9.79;100.00;101075.03;1244263;23;20258;-76
2022/09/17 01:02:57;;;;;;;13.07;1.88;;;;;;;9.88;100.00;101079.13;1249454;23;20749;-76
2022/09/17 01:03:28;;;;;;;8.18;1.40;;;;;;;9.78;100.00;101078.72;1237451;24;20261;-77
2022/09/17 01:04:00;;;;;;;6.20;0.95;;;;;;;9.75;100.00;101084.44;1237535;24;20722;-76
2022/09/17 01:04:32;;;;;;;11.27;1.83;;;;;;;9.70;100.00;101086.91;1238409;23;20967;-76
2022/09/17 01:05:05;;;;;;;9.95;1.60;;;;;;;9.75;100.00;101079.94;1245224;23;20263;-77
2022/09/17 01:05:44;;;;;;;8.77;2.22;;;;;;;9.87;100.00;101077.50;1255100;23;20259;-77
2022/09/17 01:06:19;;;;;;;8.60;1.52;;;;;;;9.82;100.00;101079.94;1249544;23;20304;-76
2022/09/17 01:07:14;;;;;;;5.68;1.95;;;;;;;9.76;100.00;101086.06;1249333;23;20278;-76
2022/09/17 01:07:56;;;;;;;9.32;2.03;;;;;;;9.76;100.00;101086.06;1249261;23;20255;-77
2022/09/17 01:08:43;;;;;;;9.63;1.33;;;;;;;9.73;100.00;101083.81;1249251;23;20331;-76
2022/09/17 01:09:39;;;;;;;7.03;1.63;;;;;;;9.73;100.00;101075.84;1249411;23;20255;-76
2022/09/17 01:10:23;;;;;;;7.18;1.33;;;;;;;9.67;100.00;101066.03;1255550;23;20255;-76
2022/09/17 01:11:14;;;;;;;4.10;1.08;;;;;;;9.71;100.00;101075.22;1255479;23;20291;-76
2022/09/17 01:12:03;;;;;;;8.82;1.80;;;;;;;9.86;100.00;101071.34;1255692;23;20261;-77
2022/09/17 01:12:42;;;;;;;12.90;2.55;;;;;;;9.77;100.00;101071.75;1255458;23;20022;-76
2022/09/17 01:13:24;;;;;;;5.43;1.00;;;;;;;9.79;100.00;101075.84;1255692;23;20262;-77
2022/09/17 01:14:24;;;;;;;8.77;2.35;;;;;;;9.77;100.00;101077.06;1255283;23;20346;-77
2022/09/17 01:15:09;;;;;;;11.45;1.83;;;;;;;9.79;100.00;101085.66;1255780;23;20259;-76
2022/09/17 01:15:41;;;;;;;5.25;1.48;;;;;;;9.81;100.00;101075.63;1255378;23;20255;-77
2022/09/17 01:16:19;;;;;;;9.23;1.70;;;;;;;9.88;100.00;101068.50;1255702;23;20319;-77
2022/09/17 01:17:09;;;;;;;9.25;1.30;;;;;;;10.00;100.00;101066.81;1248913;23;20303;-76
2022/09/17 01:18:20;;;;;;;7.60;1.38;;;;;;;9.83;100.00;101070.91;1249339;23;20319;-77
2022/09/17 01:19:24;;;;;;;11.90;1.27;;;;;;;9.85;100.00;101072.34;1255275;23;20569;-76
2022/09/17 01:20:20;;;;;;;4.47;0.82;;;;;;;9.90;100.00;101064.59;1237115;24;20356;-77
2022/09/17 01:21:12;;;;;;;9.15;1.58;;;;;;;9.85;100.00;101068.88;1243924;23;20287;-77
2022/09/17 01:21:56;;;;;;;3.72;1.10;;;;;;;9.65;100.00;101071.56;1249167;23;20739;-77
2022/09/17 01:22:53;;;;;;;7.07;1.42;;;;;;;9.58;100.00;101079.50;1243388;23;20261;-78
2022/09/17 01:24:01;;;;;;;8.60;1.42;;;;;;;9.61;100.00;101075.66;1245187;23;20267;-79
2022/09/17 01:24:53;;;;;;;7.38;2.72;;;;;;;9.69;100.00;101077.28;1255152;23;20243;-78
2022/09/17 01:25:46;;;;;;;5.88;1.58;;;;;;;9.55;100.00;101079.91;1255003;23;20262;-78
2022/09/17 01:26:29;;;;;;;9.40;2.53;;;;;;;9.46;100.00;101078.50;1249303;23;20296;-78
2022/09/17 01:27:25;;;;;;;5.28;1.70;;;;;;;9.55;100.00;101085.25;1249301;23;20276;-78
2022/09/17 01:28:18;;;;;;;3.88;1.13;;;;;;;9.59;100.00;101083.84;1250740;23;20256;-78
2022/09/17 01:28:52;;;;;;;6.57;1.77;;;;;;;9.56;100.00;101080.75;1254279;23;20259;-78
2022/09/17 01:29:45;;;;;;;4.93;1.52;;;;;;;9.52;100.00;101080.34;1249465;23;20256;-78
2022/09/17 01:30:58;;;;;;;7.03;1.33;;;;;;;9.53;100.00;101081.97;1249044;23;20256;-78
2022/09/17 01:31:41;;;;;;;8.55;1.27;;;;;;;9.56;100.00;101078.91;1231835;24;20285;-80
2022/09/17 01:32:46;;;;;;;9.15;1.17;;;;;;;9.52;100.00;101085.66;1232283;24;20756;-80
2022/09/17 01:33:22;;;;;;;12.05;1.25;;;;;;;9.57;100.00;101080.53;1229440;24;20254;-80
2022/09/17 01:34:23;;;;;;;12.48;1.88;;;;;;;9.58;100.00;101078.69;1237747;24;20252;-80
2022/09/17 01:35:04;;;;;;;7.95;1.15;;;;;;;9.61;100.00;101080.97;1221631;24;20294;-80
2022/09/17 01:35:38;;;;;;;;;;;;;;;9.60;100.00;101082.81;1232358;24;20266;-80
2022/09/17 01:36:19;;;;;;;10.85;1.60;;;;;;;9.58;100.00;101084.81;1230067;24;20318;-80
2022/09/17 01:37:01;;;;;;;10.30;1.67;;;;;;;9.66;100.00;101075.03;1237934;24;20265;-80
2022/09/17 01:37:36;;;;;;;12.82;1.33;;;;;;;9.60;100.00;101082.00;1251535;23;20652;-80
2022/09/17 01:38:10;;;;;;;5.78;0.93;;;;;;;9.60;100.00;101084.66;1260947;23;20262;-80
2022/09/17 01:38:48;;;;;;;9.63;1.50;;;;;;;9.54;100.00;101082.78;1251770;23;20262;-80
2022/09/17 01:39:30;;;;;;;6.63;1.40;;;;;;;9.53;100.00;101084.63;1249746;23;20303;-80
2022/09/17 01:40:04;;;;;;;7.03;1.27;;;;;;;9.51;100.00;101084.00;1249795;23;20240;-80
2022/09/17 01:41:01;;;;;;;4.22;1.25;;;;;;;9.47;100.00;101088.09;1246320;23;20271;-80
2022/09/17 01:41:41;;;;;;;7.03;1.80;;;;;;;9.44;100.00;101077.88;1247752;23;20288;-80
2022/09/17 01:42:23;;;;;;;4.97;1.38;;;;;;;9.40;100.00;101081.97;1244695;23;20248;-80
2022/09/17 01:43:16;;;;;;;6.13;1.20;;;;;;;9.42;100.00;101076.44;1249961;23;20076;-80
2022/09/17 01:44:02;;;;;;;6.00;1.42;;;;;;;9.45;100.00;101073.38;1244608;23;20260;-80
2022/09/17 01:44:48;;;;;;;4.63;1.75;;;;;;;9.35;100.00;101079.09;1249810;23;20255;-80
2022/09/17 01:45:32;;;;;;;5.15;1.58;;;;;;;9.32;100.00;101068.88;1250006;23;20681;-80
2022/09/17 01:46:35;;;;;;;10.95;1.50;;;;;;;9.26;100.00;101074.97;1255790;23;20254;-80
2022/09/17 01:47:15;;;;;;;4.07;1.60;;;;;;;9.26;100.00;101078.44;1237567;23;20257;-79
2022/09/17 01:47:55;;;;;;;9.10;1.63;;;;;;;9.24;100.00;101079.66;1249778;23;20259;-80
2022/09/17 01:48:37;;;;;;;7.75;1.90;;;;;;;9.23;100.00;101080.69;1243872;23;20265;-80
2022/09/17 01:49:10;;;;;;;6.43;2.67;;;;;;;9.23;100.00;101081.50;1238046;24;20257;-80
2022/09/17 01:49:42;;;;;;;3.92;1.50;;;;;;;9.21;100.00;101082.75;1242859;23;20593;-80
2022/09/17 01:50:19;;;;;;;8.35;1.48;;;;;;;9.22;100.00;101084.38;1240665;23;20344;-81
2022/09/17 01:50:54;;;;;;;4.22;1.45;;;;;;;9.27;100.00;101081.94;1241756;23;20320;-80
2022/09/17 01:51:29;;;;;;;11.20;1.70;;;;;;;9.27;100.00;101087.25;1240743;23;20728;-80
2022/09/17 01:52:01;;;;;;;10.30;1.77;;;;;;;9.15;100.00;101086.19;1241749;23;20756;-80
2022/09/17 01:52:35;;;;;;;15.48;1.63;;;;;;;9.14;100.00;101088.03;1239676;23;20272;-80
2022/09/17 01:53:08;;;;;;;7.25;1.13;;;;;;;9.21;100.00;101094.19;1239646;23;20261;-80
2022/09/17 01:53:53;;;;;;;5.85;0.90;;;;;;;9.17;100.00;101087.63;1245178;23;20268;-80
2022/09/17 01:54:27;;;;;;;11.80;1.52;;;;;;;9.19;100.00;101084.78;1243840;23;20569;-80
2022/09/17 01:55:03;;;;;;;5.40;1.15;;;;;;;9.11;100.00;101093.75;1236311;24;20269;-80
2022/09/17 01:55:37;;;;;;;7.43;1.17;;;;;;;9.14;100.00;101095.19;1232192;24;20272;-81
2022/09/17 01:56:13;;;;;;;10.00;1.52;;;;;;;9.15;100.00;101094.19;1240386;23;20269;-80
2022/09/17 01:56:57;;;;;;;11.38;1.55;;;;;;;9.13;100.00;101099.69;1243727;23;20264;-79
2022/09/17 01:57:35;;;;;;;5.43;1.17;;;;;;;9.24;100.00;101103.59;1246087;23;20283;-79
2022/09/17 01:58:10;;;;;;;11.15;2.60;;;;;;;9.23;100.00;101099.28;1238708;23;20313;-79
2022/09/17 01:58:46;;;;;;;6.57;1.50;;;;;;;9.24;100.00;101096.44;1242755;23;20257;-79
2022/09/17 01:59:21;;;;;;;7.22;1.63;;;;;;;9.19;100.00;101096.22;1247272;23;20312;-79
2022/09/17 02:00:01;;;;;;;5.90;1.25;;;;;;;9.17;100.00;101103.59;1243991;23;20255;-79
2022/09/17 02:00:47;;;;;;;5.40;1.45;;;;;;;9.17;100.00;101105.41;1247696;23;20264;-79
2022/09/17 02:01:21;;;;;;;9.65;2.50;;;;;;;9.16;100.00;101098.47;1249736;23;20331;-79
2022/09/17 02:02:14;;;;;;;10.35;2.72;;;;;;;9.12;100.00;101099.91;1244218;23;20772;-79
2022/09/17 02:03:12;;;;;;;5.82;1.10;;;;;;;9.22;100.00;101100.31;1243816;23;20384;-79
2022/09/17 02:03:49;;;;;;;9.95;0.98;;;;;;;9.17;100.00;101094.78;1247634;23;20368;-79
2022/09/17 02:04:29;;;;;;;7.82;1.45;;;;;;;9.18;100.00;101099.91;1243574;23;20559;-79
2022/09/17 02:05:10;;;;;;;5.07;1.40;;;;;;;9.12;100.00;101092.75;1243757;23;20380;-79
2022/09/17 02:05:49;;;;;;;3.58;1.17;;;;;;;9.14;100.00;101095.19;1249023;23;20255;-79
2022/09/17 02:06:26;;;;;;;10.05;2.58;;;;;;;9.23;100.00;101096.63;1247174;23;20267;-78
2022/09/17 02:07:02;;;;;;;8.50;2.17;;;;;;;9.22;100.00;101097.66;1249777;23;20354;-79
2022/09/17 02:07:43;;;;;;;9.75;1.58;;;;;;;9.19;100.00;101096.22;1249734;23;20247;-79
2022/09/17 02:08:16;;;;;;;13.90;1.95;;;;;;;9.16;100.00;101101.94;1250017;23;20621;-78
2022/09/17 02:08:55;;;;;;;6.40;1.15;;;;;;;9.12;100.00;101094.59;1244217;23;20047;-79
2022/09/17 02:09:32;;;;;;;4.80;1.42;;;;;;;9.13;100.00;101102.34;1240581;23;20291;-79
2022/09/17 02:10:09;;;;;;;8.68;2.28;;;;;;;9.17;100.00;101098.28;1238196;24;20261;-79
2022/09/17 02:10:44;;;;;;;4.32;1.73;;;;;;;9.16;100.00;101107.25;1248472;23;20256;-79
2022/09/17 02:11:16;;;;;;;9.02;1.88;;;;;;;9.18;100.00;101099.09;1253083;23;20248;-79
2022/09/17 02:11:55;;;;;;;10.93;2.25;;;;;;;9.15;100.00;101107.47;1256108;23;20253;-79
2022/09/17 02:12:30;;;;;;;6.53;1.38;;;;;;;9.18;100.00;101110.53;1247287;23;20251;-79
2022/09/17 02:13:08;;;;;;;4.68;1.08;;;;;;;9.14;100.00;101092.53;1238448;24;20319;-79
2022/09/17 02:13:45;;;;;;;7.57;1.63;;;;;;;9.09;100.00;101101.13;1242496;23;20248;-79
2022/09/17 02:14:23;;;;;;;2.50;0.93;;;;;;;9.07;100.00;101094.38;1247955;23;20737;-79
2022/09/17 02:14:58;;;;;;;7.68;0.95;;;;;;;9.08;100.00;101103.97;1250036;23;20251;-78
2022/09/17 02:15:32;;;;;;;8.25;2.10;;;;;;;9.14;100.00;101108.47;1243953;23;20683;-78
2022/09/17 02:16:12;;;;;;;8.85;1.17;;;;;;;9.12;100.00;101115.84;1238256;24;20386;-79
2022/09/17 02:16:49;;;;;;;14.93;2.92;;;;;;;9.09;100.00;101105.63;1238288;24;20256;-78
2022/09/17 02:18:02;;;;;;;7.85;1.08;;;;;;;9.12;100.00;101102.56;1249747;23;20307;-79
2022/09/17 02:18:40;;;;;;;10.90;2.22;;;;;;;9.12;100.00;101099.91;1238180;24;20265;-79
2022/09/17 02:19:15;;;;;;;9.48;1.38;;;;;;;9.10;100.00;101091.31;1244370;23;20731;-79
2022/09/17 02:19:47;;;;;;;8.48;1.55;;;;;;;9.16;100.00;101091.31;1244059;23;20585;-79
2022/09/17 02:20:24;;;;;;;10.70;1.50;;;;;;;9.17;100.00;101092.13;1250029;23;20260;-79
2022/09/17 02:21:10;;;;;;;7.03;1.48;;;;;;;9.19;100.00;101090.09;1249232;23;20272;-79
2022/09/17 02:22:02;;;;;;;6.15;1.15;;;;;;;9.16;100.00;101099.28;1255663;23;20251;-79
2022/09/17 02:22:41;;;;;;;6.47;1.38;;;;;;;9.17;100.00;101097.44;1256030;23;20719;-79
2022/09/17 02:23:26;;;;;;;7.55;1.80;;;;;;;9.17;100.00;101098.28;1253966;23;20300;-79
2022/09/17 02:24:09;;;;;;;7.50;1.20;;;;;;;9.19;100.00;101106.03;1255820;23;20294;-79
2022/09/17 02:25:18;;;;;;;7.78;1.80;;;;;;;9.22;100.00;101105.63;1244300;23;20647;-79
2022/09/17 02:25:59;;;;;;;9.52;3.47;;;;;;;9.18;100.00;101110.53;1258063;23;20734;-79
2022/09/17 02:26:31;;;;;;;9.27;1.02;;;;;;;9.20;100.00;101102.38;1262119;23;20258;-78
2022/09/17 02:27:07;;;;;;;6.82;1.10;;;;;;;9.24;100.00;101101.75;1255990;23;20247;-79
2022/09/17 02:27:46;;;;;;;5.88;2.08;;;;;;;9.19;100.00;101098.06;1241091;23;20327;-79
2022/09/17 02:28:26;;;;;;;6.93;2.65;;;;;;;9.17;100.00;101098.28;1241091;23;20641;-79
2022/09/17 02:29:04;;;;;;;7.68;1.10;;;;;;;9.12;100.00;101100.72;1248692;23;20339;-79
2022/09/17 02:29:38;;;;;;;8.55;1.00;;;;;;;9.13;100.00;101096.22;1255285;23;20055;-79
2022/09/17 02:30:09;;;;;;;7.55;1.10;;;;;;;9.08;100.00;101098.66;1252124;23;20271;-79
2022/09/17 02:30:41;;;;;;;8.25;1.48;;;;;;;9.10;100.00;101100.09;1247719;23;20724;-79
2022/09/17 02:31:13;;;;;;;6.35;1.38;;;;;;;9.08;100.00;101096.00;1244419;23;20327;-79
2022/09/17 02:31:45;;;;;;;9.93;1.55;;;;;;;9.08;100.00;101096.81;1250672;23;20252;-79
2022/09/17 02:32:16;;;;;;;3.63;1.25;;;;;;;9.06;100.00;101100.69;1250930;23;20414;-79
2022/09/17 02:32:48;;;;;;;5.97;0.95;;;;;;;9.02;100.00;101099.44;1256180;23;20243;-79
2022/09/17 02:33:20;;;;;;;11.95;1.60;;;;;;;9.06;100.00;101100.69;1247937;23;20329;-79
2022/09/17 02:33:56;;;;;;;2.88;0.82;;;;;;;9.04;100.00;101102.72;1244036;23;20277;-79
2022/09/17 02:34:28;;;;;;;7.63;1.70;;;;;;;9.07;100.00;101107.66;1238222;24;20348;-79
2022/09/17 02:34:59;;;;;;;8.70;1.77;;;;;;;9.07;100.00;101105.00;1240008;23;20280;-79
2022/09/17 02:35:32;;;;;;;5.22;1.45;;;;;;;8.99;100.00;101098.81;1238353;24;20319;-79
2022/09/17 02:36:04;;;;;;;5.40;0.95;;;;;;;8.98;100.00;101091.88;1239400;23;20725;-79
2022/09/17 02:36:35;;;;;;;9.02;1.33;;;;;;;8.98;100.00;101091.88;1239356;23;20344;-79
2022/09/17 02:37:07;;;;;;;6.00;1.40;;;;;;;8.95;100.00;101094.94;1245310;23;20255;-79
2022/09/17 02:37:43;;;;;;;5.18;1.10;;;;;;;8.95;100.00;101099.41;1250098;23;20604;-79
2022/09/17 02:38:24;;;;;;;8.57;1.27;;;;;;;8.96;100.00;101096.56;1245876;23;20241;-79
2022/09/17 02:39:00;;;;;;;6.05;1.95;;;;;;;8.99;100.00;101096.16;1244310;23;20585;-79
2022/09/17 02:39:32;;;;;;;9.20;1.20;;;;;;;8.99;100.00;101101.47;1238321;24;20308;-79
2022/09/17 02:40:05;;;;;;;6.82;1.08;;;;;;;8.93;100.00;101104.13;1242131;23;20249;-79
2022/09/17 02:40:49;;;;;;;8.57;0.85;;;;;;;8.98;100.00;101094.53;1240244;23;20253;-79
2022/09/17 02:41:24;;;;;;;4.85;1.80;;;;;;;9.04;100.00;101092.09;1247459;23;20256;-79
2022/09/17 02:42:26;;;;;;;9.25;1.42;;;;;;;9.04;100.00;101089.44;1244328;23;20257;-79
2022/09/17 02:43:19;;;;;;;6.68;1.58;;;;;;;9.01;100.00;101093.31;1249945;23;20284;-78
2022/09/17 02:44:00;;;;;;;6.05;1.75;;;;;;;8.91;100.00;101085.72;1248691;23;20275;-79
2022/09/17 02:44:53;;;;;;;5.35;1.27;;;;;;;8.94;100.00;101098.59;1250124;23;20278;-79
2022/09/17 02:46:02;;;;;;;10.13;1.20;;;;;;;8.90;100.00;101093.88;1244878;23;20012;-79
2022/09/17 02:46:48;;;;;;;10.95;1.20;;;;;;;8.93;100.00;101091.66;1242177;23;20261;-79
2022/09/17 02:47:39;;;;;;;6.32;1.30;;;;;;;8.95;100.00;101102.06;1249035;23;20352;-79
2022/09/17 02:48:13;;;;;;;6.00;1.10;;;;;;;8.90;100.00;101102.69;1245164;23;20249;-79
2022/09/17 02:49:00;;;;;;;3.53;1.15;;;;;;;8.90;100.00;101102.69;1249953;23;20251;-79
2022/09/17 02:49:50;;;;;;;14.23;1.52;;;;;;;9.01;100.00;101113.75;1244395;23;20267;-79
2022/09/17 02:50:27;;;;;;;4.20;0.90;;;;;;;8.99;100.00;101101.47;1244129;23;20252;-79
2022/09/17 02:51:08;;;;;;;4.50;1.55;;;;;;;8.98;100.00;101109.66;1244187;23;20252;-79
2022/09/17 02:52:06;;;;;;;9.80;2.13;;;;;;;8.96;100.00;101117.81;1248138;23;20662;-79
2022/09/17 02:52:59;;;;;;;7.70;0.80;;;;;;;8.95;100.00;101116.19;1244220;23;20038;-79
2022/09/17 02:54:09;;;;;;;11.75;2.20;;;;;;;8.94;100.00;101109.22;1242033;23;20751;-79
2022/09/17 02:54:55;;;;;;;7.35;1.38;;;;;;;8.97;100.00;101111.47;1244129;23;20248;-79
2022/09/17 02:55:50;;;;;;;9.65;1.58;;;;;;;9.09;100.00;101114.41;1248978;23;20321;-79
2022/09/17 02:56:57;;;;;;;14.00;1.35;;;;;;;9.17;100.00;101118.72;1244160;23;20261;-79
2022/09/17 02:57:35;;;;;;;7.97;1.63;;;;;;;9.27;100.00;101116.47;1243970;23;20259;-79
2022/09/17 02:58:16;;;;;;;4.95;1.17;;;;;;;9.27;100.00;101113.81;1246865;23;20248;-79
2022/09/17 02:59:01;;;;;;;5.72;0.95;;;;;;;9.27;100.00;101119.13;1250044;23;20335;-79
2022/09/17 02:59:51;;;;;;;8.18;1.30;;;;;;;9.30;100.00;101119.56;1243942;23;20401;-79
2022/09/17 03:00:23;;;;;;;4.53;0.90;;;;;;;9.32;100.00;101115.91;1243904;23;20759;-79